sensor_id;sensor_type;location;lat;lon;timestamp;P1;durP1;ratioP1;P2;durP2;ratioP2
8293;SDS011;4185;41.506;24.938;2023-09-19T00:00:30;4.97;;;4.27;;
8293;SDS011;4185;41.506;24.938;2023-09-19T00:02:58;5.30;;;4.00;;
8293;SDS011;4185;41.506;24.938;2023-09-19T00:05:27;5.37;;;4.43;;
8293;SDS011;4185;41.506;24.938;2023-09-19T00:07:55;8.23;;;4.33;;
8293;SDS011;4185;41.506;24.938;2023-09-19T00:10:24;4.40;;;4.00;;
8293;SDS011;4185;41.506;24.938;2023-09-19T00:12:52;4.67;;;4.20;;
8293;SDS011;4185;41.506;24.938;2023-09-19T00:15:20;6.33;;;4.20;;
8293;SDS011;4185;41.506;24.938;2023-09-19T00:17:47;6.47;;;4.50;;
8293;SDS011;4185;41.506;24.938;2023-09-19T00:20:17;5.87;;;3.93;;
8293;SDS011;4185;41.506;24.938;2023-09-19T00:22:46;6.43;;;3.80;;
8293;SDS011;4185;41.506;24.938;2023-09-19T00:25:12;6.70;;;4.50;;
8293;SDS011;4185;41.506;24.938;2023-09-19T00:27:40;6.60;;;4.70;;
8293;SDS011;4185;41.506;24.938;2023-09-19T00:30:08;5.27;;;4.77;;
8293;SDS011;4185;41.506;24.938;2023-09-19T00:32:39;4.60;;;4.20;;
8293;SDS011;4185;41.506;24.938;2023-09-19T00:35:07;5.07;;;4.37;;
8293;SDS011;4185;41.506;24.938;2023-09-19T00:37:35;4.20;;;3.80;;
8293;SDS011;4185;41.506;24.938;2023-09-19T00:40:04;5.07;;;3.73;;
8293;SDS011;4185;41.506;24.938;2023-09-19T00:42:32;4.53;;;4.00;;
8293;SDS011;4185;41.506;24.938;2023-09-19T00:44:59;4.83;;;4.30;;
8293;SDS011;4185;41.506;24.938;2023-09-19T00:47:28;6.00;;;4.07;;
8293;SDS011;4185;41.506;24.938;2023-09-19T00:49:56;6.03;;;4.60;;
8293;SDS011;4185;41.506;24.938;2023-09-19T00:52:23;4.53;;;3.90;;
8293;SDS011;4185;41.506;24.938;2023-09-19T00:54:50;5.30;;;4.40;;
8293;SDS011;4185;41.506;24.938;2023-09-19T00:57:19;4.40;;;4.00;;
8293;SDS011;4185;41.506;24.938;2023-09-19T00:59:47;5.30;;;4.30;;
8293;SDS011;4185;41.506;24.938;2023-09-19T01:02:16;4.87;;;4.33;;
8293;SDS011;4185;41.506;24.938;2023-09-19T01:04:43;6.07;;;4.10;;
8293;SDS011;4185;41.506;24.938;2023-09-19T01:07:11;4.43;;;3.93;;
8293;SDS011;4185;41.506;24.938;2023-09-19T01:09:39;7.50;;;4.57;;
8293;SDS011;4185;41.506;24.938;2023-09-19T01:12:07;7.43;;;5.07;;
8293;SDS011;4185;41.506;24.938;2023-09-19T01:14:41;8.37;;;5.17;;
8293;SDS011;4185;41.506;24.938;2023-09-19T01:17:14;8.70;;;6.20;;
8293;SDS011;4185;41.506;24.938;2023-09-19T01:20:03;7.03;;;5.43;;
8293;SDS011;4185;41.506;24.938;2023-09-19T01:22:42;5.53;;;4.63;;
8293;SDS011;4185;41.506;24.938;2023-09-19T01:25:33;9.73;;;5.20;;
8293;SDS011;4185;41.506;24.938;2023-09-19T01:28:34;8.17;;;5.27;;
8293;SDS011;4185;41.506;24.938;2023-09-19T01:31:13;8.33;;;5.13;;
8293;SDS011;4185;41.506;24.938;2023-09-19T01:33:54;12.83;;;5.40;;
8293;SDS011;4185;41.506;24.938;2023-09-19T01:36:28;13.37;;;5.90;;
8293;SDS011;4185;41.506;24.938;2023-09-19T01:38:59;10.07;;;5.47;;
8293;SDS011;4185;41.506;24.938;2023-09-19T01:41:35;8.70;;;5.57;;
8293;SDS011;4185;41.506;24.938;2023-09-19T01:44:09;13.20;;;5.63;;
8293;SDS011;4185;41.506;24.938;2023-09-19T01:46:44;6.90;;;5.00;;
8293;SDS011;4185;41.506;24.938;2023-09-19T01:49:15;12.57;;;5.70;;
8293;SDS011;4185;41.506;24.938;2023-09-19T01:51:53;13.53;;;5.80;;
8293;SDS011;4185;41.506;24.938;2023-09-19T01:54:30;8.30;;;5.63;;
8293;SDS011;4185;41.506;24.938;2023-09-19T01:57:03;9.87;;;5.50;;
8293;SDS011;4185;41.506;24.938;2023-09-19T01:59:35;8.00;;;5.73;;
8293;SDS011;4185;41.506;24.938;2023-09-19T02:02:09;10.93;;;5.63;;
8293;SDS011;4185;41.506;24.938;2023-09-19T02:04:36;8.40;;;5.33;;
8293;SDS011;4185;41.506;24.938;2023-09-19T02:07:03;8.10;;;5.30;;
8293;SDS011;4185;41.506;24.938;2023-09-19T02:09:33;14.10;;;5.90;;
8293;SDS011;4185;41.506;24.938;2023-09-19T02:12:00;7.30;;;5.80;;
8293;SDS011;4185;41.506;24.938;2023-09-19T02:14:29;7.07;;;5.90;;
8293;SDS011;4185;41.506;24.938;2023-09-19T02:16:57;13.90;;;5.60;;
8293;SDS011;4185;41.506;24.938;2023-09-19T02:19:26;9.40;;;6.13;;
8293;SDS011;4185;41.506;24.938;2023-09-19T02:21:53;10.60;;;5.83;;
8293;SDS011;4185;41.506;24.938;2023-09-19T02:24:20;15.77;;;6.10;;
8293;SDS011;4185;41.506;24.938;2023-09-19T02:26:46;8.80;;;5.47;;
8293;SDS011;4185;41.506;24.938;2023-09-19T02:29:13;6.97;;;4.97;;
8293;SDS011;4185;41.506;24.938;2023-09-19T02:31:40;6.53;;;5.23;;
8293;SDS011;4185;41.506;24.938;2023-09-19T02:34:07;11.40;;;5.33;;
8293;SDS011;4185;41.506;24.938;2023-09-19T02:36:36;7.33;;;5.43;;
8293;SDS011;4185;41.506;24.938;2023-09-19T02:39:03;4.50;;;3.97;;
8293;SDS011;4185;41.506;24.938;2023-09-19T02:41:31;6.77;;;4.13;;
8293;SDS011;4185;41.506;24.938;2023-09-19T02:43:58;4.27;;;3.63;;
8293;SDS011;4185;41.506;24.938;2023-09-19T02:46:26;5.90;;;4.30;;
8293;SDS011;4185;41.506;24.938;2023-09-19T02:48:53;7.30;;;4.33;;
8293;SDS011;4185;41.506;24.938;2023-09-19T02:51:21;6.27;;;4.13;;
8293;SDS011;4185;41.506;24.938;2023-09-19T02:53:49;6.20;;;4.90;;
8293;SDS011;4185;41.506;24.938;2023-09-19T02:56:17;8.23;;;5.27;;
8293;SDS011;4185;41.506;24.938;2023-09-19T02:58:44;5.77;;;4.27;;
8293;SDS011;4185;41.506;24.938;2023-09-19T03:01:11;6.43;;;4.77;;
8293;SDS011;4185;41.506;24.938;2023-09-19T03:03:38;7.30;;;5.00;;
8293;SDS011;4185;41.506;24.938;2023-09-19T03:06:06;6.87;;;5.27;;
8293;SDS011;4185;41.506;24.938;2023-09-19T03:08:34;7.43;;;5.47;;
8293;SDS011;4185;41.506;24.938;2023-09-19T03:11:04;6.63;;;5.13;;
8293;SDS011;4185;41.506;24.938;2023-09-19T03:13:33;5.50;;;4.70;;
8293;SDS011;4185;41.506;24.938;2023-09-19T03:16:01;5.47;;;4.70;;
8293;SDS011;4185;41.506;24.938;2023-09-19T03:18:30;5.83;;;4.43;;
8293;SDS011;4185;41.506;24.938;2023-09-19T03:20:58;7.70;;;5.07;;
8293;SDS011;4185;41.506;24.938;2023-09-19T03:23:25;8.93;;;4.73;;
8293;SDS011;4185;41.506;24.938;2023-09-19T03:25:53;9.97;;;4.57;;
8293;SDS011;4185;41.506;24.938;2023-09-19T03:28:21;20.77;;;5.00;;
8293;SDS011;4185;41.506;24.938;2023-09-19T03:30:57;7.23;;;4.93;;
8293;SDS011;4185;41.506;24.938;2023-09-19T03:33:25;16.93;;;5.40;;
8293;SDS011;4185;41.506;24.938;2023-09-19T03:35:52;10.93;;;4.60;;
8293;SDS011;4185;41.506;24.938;2023-09-19T03:38:20;6.43;;;4.70;;
8293;SDS011;4185;41.506;24.938;2023-09-19T03:40:47;11.13;;;5.20;;
8293;SDS011;4185;41.506;24.938;2023-09-19T03:43:14;8.37;;;5.00;;
8293;SDS011;4185;41.506;24.938;2023-09-19T03:45:42;7.13;;;4.90;;
8293;SDS011;4185;41.506;24.938;2023-09-19T03:48:10;9.00;;;5.20;;
8293;SDS011;4185;41.506;24.938;2023-09-19T03:50:37;11.37;;;4.80;;
8293;SDS011;4185;41.506;24.938;2023-09-19T03:53:03;6.67;;;4.97;;
8293;SDS011;4185;41.506;24.938;2023-09-19T03:55:32;15.60;;;5.80;;
8293;SDS011;4185;41.506;24.938;2023-09-19T03:58:00;6.50;;;5.27;;
8293;SDS011;4185;41.506;24.938;2023-09-19T04:00:27;6.70;;;4.73;;
8293;SDS011;4185;41.506;24.938;2023-09-19T04:02:56;6.87;;;4.73;;
8293;SDS011;4185;41.506;24.938;2023-09-19T04:05:23;8.97;;;5.00;;
8293;SDS011;4185;41.506;24.938;2023-09-19T04:07:49;7.70;;;4.77;;
8293;SDS011;4185;41.506;24.938;2023-09-19T04:10:16;7.87;;;4.53;;
8293;SDS011;4185;41.506;24.938;2023-09-19T04:12:50;9.57;;;5.73;;
8293;SDS011;4185;41.506;24.938;2023-09-19T04:15:18;9.37;;;5.77;;
8293;SDS011;4185;41.506;24.938;2023-09-19T04:17:47;4.60;;;4.20;;
8293;SDS011;4185;41.506;24.938;2023-09-19T04:20:15;5.13;;;4.63;;
8293;SDS011;4185;41.506;24.938;2023-09-19T04:22:44;3.90;;;3.47;;
8293;SDS011;4185;41.506;24.938;2023-09-19T04:25:11;4.57;;;3.47;;
8293;SDS011;4185;41.506;24.938;2023-09-19T04:27:38;5.77;;;4.43;;
8293;SDS011;4185;41.506;24.938;2023-09-19T04:30:07;4.20;;;3.80;;
8293;SDS011;4185;41.506;24.938;2023-09-19T04:32:37;9.07;;;4.50;;
8293;SDS011;4185;41.506;24.938;2023-09-19T04:35:05;6.10;;;4.43;;
8293;SDS011;4185;41.506;24.938;2023-09-19T04:37:35;6.67;;;4.77;;
8293;SDS011;4185;41.506;24.938;2023-09-19T04:40:07;8.43;;;4.50;;
8293;SDS011;4185;41.506;24.938;2023-09-19T04:42:38;5.90;;;4.60;;
8293;SDS011;4185;41.506;24.938;2023-09-19T04:45:07;6.13;;;4.10;;
8293;SDS011;4185;41.506;24.938;2023-09-19T04:47:35;4.50;;;4.10;;
8293;SDS011;4185;41.506;24.938;2023-09-19T04:50:04;5.47;;;4.50;;
8293;SDS011;4185;41.506;24.938;2023-09-19T04:52:39;5.00;;;4.13;;
8293;SDS011;4185;41.506;24.938;2023-09-19T04:55:09;4.43;;;4.03;;
8293;SDS011;4185;41.506;24.938;2023-09-19T04:57:42;7.20;;;4.77;;
8293;SDS011;4185;41.506;24.938;2023-09-19T05:00:10;5.20;;;4.10;;
8293;SDS011;4185;41.506;24.938;2023-09-19T05:02:40;11.93;;;4.87;;
8293;SDS011;4185;41.506;24.938;2023-09-19T05:05:07;5.63;;;5.00;;
8293;SDS011;4185;41.506;24.938;2023-09-19T05:07:34;7.73;;;4.80;;
8293;SDS011;4185;41.506;24.938;2023-09-19T05:10:02;6.13;;;4.80;;
8293;SDS011;4185;41.506;24.938;2023-09-19T05:12:32;6.40;;;4.40;;
8293;SDS011;4185;41.506;24.938;2023-09-19T05:15:00;5.80;;;4.73;;
8293;SDS011;4185;41.506;24.938;2023-09-19T05:17:28;4.97;;;3.90;;
8293;SDS011;4185;41.506;24.938;2023-09-19T05:19:55;6.80;;;4.57;;
8293;SDS011;4185;41.506;24.938;2023-09-19T05:22:21;5.00;;;4.20;;
8293;SDS011;4185;41.506;24.938;2023-09-19T05:24:49;6.93;;;4.57;;
8293;SDS011;4185;41.506;24.938;2023-09-19T05:27:19;7.10;;;5.20;;
8293;SDS011;4185;41.506;24.938;2023-09-19T05:29:46;11.53;;;5.60;;
8293;SDS011;4185;41.506;24.938;2023-09-19T05:32:14;7.97;;;5.40;;
8293;SDS011;4185;41.506;24.938;2023-09-19T05:34:41;5.83;;;4.83;;
8293;SDS011;4185;41.506;24.938;2023-09-19T05:37:07;6.70;;;5.67;;
8293;SDS011;4185;41.506;24.938;2023-09-19T05:39:34;5.77;;;4.90;;
8293;SDS011;4185;41.506;24.938;2023-09-19T05:42:02;7.03;;;4.97;;
8293;SDS011;4185;41.506;24.938;2023-09-19T05:44:31;8.17;;;5.23;;
8293;SDS011;4185;41.506;24.938;2023-09-19T05:46:58;4.97;;;4.40;;
8293;SDS011;4185;41.506;24.938;2023-09-19T05:49:25;5.43;;;4.47;;
8293;SDS011;4185;41.506;24.938;2023-09-19T05:51:52;8.13;;;4.97;;
8293;SDS011;4185;41.506;24.938;2023-09-19T05:54:21;8.40;;;5.47;;
8293;SDS011;4185;41.506;24.938;2023-09-19T05:56:48;7.20;;;4.40;;
8293;SDS011;4185;41.506;24.938;2023-09-19T05:59:18;7.33;;;4.00;;
8293;SDS011;4185;41.506;24.938;2023-09-19T06:01:46;5.97;;;4.37;;
8293;SDS011;4185;41.506;24.938;2023-09-19T06:04:13;5.17;;;4.50;;
8293;SDS011;4185;41.506;24.938;2023-09-19T06:06:40;7.10;;;5.23;;
8293;SDS011;4185;41.506;24.938;2023-09-19T06:09:07;7.27;;;4.70;;
8293;SDS011;4185;41.506;24.938;2023-09-19T06:11:34;7.43;;;4.50;;
8293;SDS011;4185;41.506;24.938;2023-09-19T06:14:01;8.23;;;4.40;;
8293;SDS011;4185;41.506;24.938;2023-09-19T06:16:28;5.40;;;4.63;;
8293;SDS011;4185;41.506;24.938;2023-09-19T06:18:56;7.50;;;5.07;;
8293;SDS011;4185;41.506;24.938;2023-09-19T06:21:24;6.37;;;5.17;;
8293;SDS011;4185;41.506;24.938;2023-09-19T06:23:52;5.87;;;4.70;;
8293;SDS011;4185;41.506;24.938;2023-09-19T06:26:19;7.67;;;5.27;;
8293;SDS011;4185;41.506;24.938;2023-09-19T06:28:46;6.67;;;5.37;;
8293;SDS011;4185;41.506;24.938;2023-09-19T06:31:13;5.87;;;4.90;;
8293;SDS011;4185;41.506;24.938;2023-09-19T06:33:40;7.33;;;5.17;;
8293;SDS011;4185;41.506;24.938;2023-09-19T06:36:09;6.33;;;5.10;;
8293;SDS011;4185;41.506;24.938;2023-09-19T06:38:36;12.73;;;7.10;;
8293;SDS011;4185;41.506;24.938;2023-09-19T06:41:04;7.33;;;4.93;;
8293;SDS011;4185;41.506;24.938;2023-09-19T06:43:32;8.33;;;5.27;;
8293;SDS011;4185;41.506;24.938;2023-09-19T06:45:59;5.43;;;4.53;;
8293;SDS011;4185;41.506;24.938;2023-09-19T06:48:26;6.63;;;4.93;;
8293;SDS011;4185;41.506;24.938;2023-09-19T06:50:54;6.23;;;5.50;;
8293;SDS011;4185;41.506;24.938;2023-09-19T06:53:22;10.70;;;5.83;;
8293;SDS011;4185;41.506;24.938;2023-09-19T06:55:49;11.80;;;5.00;;
8293;SDS011;4185;41.506;24.938;2023-09-19T06:58:16;7.40;;;4.83;;
8293;SDS011;4185;41.506;24.938;2023-09-19T07:00:44;5.43;;;4.67;;
8293;SDS011;4185;41.506;24.938;2023-09-19T07:03:12;8.23;;;4.80;;
8293;SDS011;4185;41.506;24.938;2023-09-19T07:05:41;6.50;;;4.80;;
8293;SDS011;4185;41.506;24.938;2023-09-19T07:08:09;10.53;;;4.83;;
8293;SDS011;4185;41.506;24.938;2023-09-19T07:10:38;5.17;;;4.63;;
8293;SDS011;4185;41.506;24.938;2023-09-19T07:13:07;6.30;;;4.67;;
8293;SDS011;4185;41.506;24.938;2023-09-19T07:15:36;7.27;;;4.83;;
8293;SDS011;4185;41.506;24.938;2023-09-19T07:18:11;8.33;;;5.20;;
8293;SDS011;4185;41.506;24.938;2023-09-19T07:20:39;6.57;;;4.70;;
8293;SDS011;4185;41.506;24.938;2023-09-19T07:23:10;5.63;;;4.33;;
8293;SDS011;4185;41.506;24.938;2023-09-19T07:25:40;4.93;;;3.80;;
8293;SDS011;4185;41.506;24.938;2023-09-19T07:28:07;5.83;;;3.97;;
8293;SDS011;4185;41.506;24.938;2023-09-19T07:30:35;7.00;;;4.50;;
8293;SDS011;4185;41.506;24.938;2023-09-19T07:33:04;4.50;;;3.57;;
8293;SDS011;4185;41.506;24.938;2023-09-19T07:35:31;5.63;;;4.17;;
8293;SDS011;4185;41.506;24.938;2023-09-19T07:37:58;5.03;;;3.90;;
8293;SDS011;4185;41.506;24.938;2023-09-19T07:40:26;5.50;;;4.37;;
8293;SDS011;4185;41.506;24.938;2023-09-19T07:42:55;4.30;;;3.73;;
8293;SDS011;4185;41.506;24.938;2023-09-19T07:45:26;6.83;;;4.07;;
8293;SDS011;4185;41.506;24.938;2023-09-19T07:47:55;4.30;;;3.73;;
8293;SDS011;4185;41.506;24.938;2023-09-19T07:50:22;4.20;;;3.63;;
8293;SDS011;4185;41.506;24.938;2023-09-19T07:52:49;5.30;;;3.83;;
8293;SDS011;4185;41.506;24.938;2023-09-19T07:55:17;4.03;;;3.33;;
8293;SDS011;4185;41.506;24.938;2023-09-19T07:57:48;4.73;;;3.30;;
8293;SDS011;4185;41.506;24.938;2023-09-19T08:00:16;4.20;;;3.67;;
8293;SDS011;4185;41.506;24.938;2023-09-19T08:02:43;5.53;;;3.50;;
8293;SDS011;4185;41.506;24.938;2023-09-19T08:05:11;6.17;;;3.70;;
8293;SDS011;4185;41.506;24.938;2023-09-19T08:07:41;3.97;;;3.30;;
8293;SDS011;4185;41.506;24.938;2023-09-19T08:10:08;4.47;;;3.50;;
8293;SDS011;4185;41.506;24.938;2023-09-19T08:12:39;4.63;;;3.63;;
8293;SDS011;4185;41.506;24.938;2023-09-19T08:15:12;5.50;;;4.27;;
8293;SDS011;4185;41.506;24.938;2023-09-19T08:17:41;4.10;;;3.63;;
8293;SDS011;4185;41.506;24.938;2023-09-19T08:20:08;5.80;;;3.77;;
8293;SDS011;4185;41.506;24.938;2023-09-19T08:22:42;5.43;;;3.93;;
8293;SDS011;4185;41.506;24.938;2023-09-19T08:25:12;3.57;;;3.17;;
8293;SDS011;4185;41.506;24.938;2023-09-19T08:27:39;6.60;;;3.57;;
8293;SDS011;4185;41.506;24.938;2023-09-19T08:30:09;4.00;;;3.50;;
8293;SDS011;4185;41.506;24.938;2023-09-19T08:32:36;4.03;;;3.63;;
8293;SDS011;4185;41.506;24.938;2023-09-19T08:35:05;4.33;;;3.70;;
8293;SDS011;4185;41.506;24.938;2023-09-19T08:37:34;7.67;;;5.60;;
8293;SDS011;4185;41.506;24.938;2023-09-19T08:40:01;4.63;;;3.40;;
8293;SDS011;4185;41.506;24.938;2023-09-19T08:42:28;5.00;;;3.67;;
8293;SDS011;4185;41.506;24.938;2023-09-19T08:44:55;4.10;;;3.50;;
8293;SDS011;4185;41.506;24.938;2023-09-19T08:47:27;4.17;;;3.40;;
8293;SDS011;4185;41.506;24.938;2023-09-19T08:50:01;5.67;;;3.70;;
8293;SDS011;4185;41.506;24.938;2023-09-19T08:52:41;5.10;;;3.20;;
8293;SDS011;4185;41.506;24.938;2023-09-19T08:55:10;4.27;;;3.60;;
8293;SDS011;4185;41.506;24.938;2023-09-19T08:57:45;6.17;;;3.63;;
8293;SDS011;4185;41.506;24.938;2023-09-19T09:00:14;3.87;;;3.40;;
8293;SDS011;4185;41.506;24.938;2023-09-19T09:02:43;3.87;;;3.20;;
8293;SDS011;4185;41.506;24.938;2023-09-19T09:05:13;4.30;;;3.30;;
8293;SDS011;4185;41.506;24.938;2023-09-19T09:07:47;4.57;;;3.70;;
8293;SDS011;4185;41.506;24.938;2023-09-19T09:10:15;3.93;;;3.33;;
8293;SDS011;4185;41.506;24.938;2023-09-19T09:12:42;3.60;;;3.30;;
8293;SDS011;4185;41.506;24.938;2023-09-19T09:15:10;4.57;;;3.03;;
8293;SDS011;4185;41.506;24.938;2023-09-19T09:17:41;3.60;;;3.20;;
8293;SDS011;4185;41.506;24.938;2023-09-19T09:20:10;3.90;;;3.50;;
8293;SDS011;4185;41.506;24.938;2023-09-19T09:22:39;3.10;;;2.80;;
8293;SDS011;4185;41.506;24.938;2023-09-19T09:25:17;3.77;;;2.80;;
8293;SDS011;4185;41.506;24.938;2023-09-19T09:27:45;4.13;;;2.60;;
8293;SDS011;4185;41.506;24.938;2023-09-19T09:30:32;3.37;;;2.50;;
8293;SDS011;4185;41.506;24.938;2023-09-19T09:33:07;3.37;;;2.33;;
8293;SDS011;4185;41.506;24.938;2023-09-19T09:35:36;3.00;;;2.50;;
8293;SDS011;4185;41.506;24.938;2023-09-19T09:38:05;3.63;;;2.43;;
8293;SDS011;4185;41.506;24.938;2023-09-19T09:40:45;2.67;;;2.20;;
8293;SDS011;4185;41.506;24.938;2023-09-19T09:43:28;3.83;;;2.63;;
8293;SDS011;4185;41.506;24.938;2023-09-19T09:49:05;2.37;;;2.10;;
8293;SDS011;4185;41.506;24.938;2023-09-19T09:51:41;2.23;;;1.90;;
8293;SDS011;4185;41.506;24.938;2023-09-19T09:54:12;2.87;;;2.50;;
8293;SDS011;4185;41.506;24.938;2023-09-19T09:56:56;3.50;;;2.43;;
8293;SDS011;4185;41.506;24.938;2023-09-19T10:02:12;2.60;;;2.30;;
8293;SDS011;4185;41.506;24.938;2023-09-19T10:04:45;3.13;;;2.50;;
8293;SDS011;4185;41.506;24.938;2023-09-19T10:07:27;4.37;;;2.80;;
8293;SDS011;4185;41.506;24.938;2023-09-19T10:09:59;3.57;;;2.50;;
8293;SDS011;4185;41.506;24.938;2023-09-19T10:12:38;3.93;;;2.70;;
8293;SDS011;4185;41.506;24.938;2023-09-19T10:15:10;3.80;;;2.63;;
8293;SDS011;4185;41.506;24.938;2023-09-19T10:17:41;3.30;;;2.60;;
8293;SDS011;4185;41.506;24.938;2023-09-19T10:20:12;4.03;;;2.83;;
8293;SDS011;4185;41.506;24.938;2023-09-19T10:22:57;3.53;;;2.30;;
8293;SDS011;4185;41.506;24.938;2023-09-19T10:25:28;3.17;;;2.87;;
8293;SDS011;4185;41.506;24.938;2023-09-19T10:27:56;3.40;;;2.80;;
8293;SDS011;4185;41.506;24.938;2023-09-19T10:30:27;3.80;;;3.10;;
8293;SDS011;4185;41.506;24.938;2023-09-19T10:32:57;3.47;;;2.73;;
8293;SDS011;4185;41.506;24.938;2023-09-19T10:35:28;3.70;;;3.20;;
8293;SDS011;4185;41.506;24.938;2023-09-19T10:37:57;2.70;;;2.50;;
8293;SDS011;4185;41.506;24.938;2023-09-19T10:40:27;5.00;;;3.17;;
8293;SDS011;4185;41.506;24.938;2023-09-19T10:43:03;4.13;;;2.90;;
8293;SDS011;4185;41.506;24.938;2023-09-19T10:45:31;3.37;;;2.67;;
8293;SDS011;4185;41.506;24.938;2023-09-19T10:48:00;2.67;;;2.47;;
8293;SDS011;4185;41.506;24.938;2023-09-19T10:50:30;3.10;;;2.70;;
8293;SDS011;4185;41.506;24.938;2023-09-19T10:53:00;3.17;;;2.87;;
8293;SDS011;4185;41.506;24.938;2023-09-19T10:55:33;3.80;;;3.17;;
8293;SDS011;4185;41.506;24.938;2023-09-19T10:58:02;3.60;;;3.23;;
8293;SDS011;4185;41.506;24.938;2023-09-19T11:00:49;3.60;;;3.13;;
8293;SDS011;4185;41.506;24.938;2023-09-19T11:03:18;3.40;;;2.70;;
8293;SDS011;4185;41.506;24.938;2023-09-19T11:06:04;3.60;;;3.07;;
8293;SDS011;4185;41.506;24.938;2023-09-19T11:11:45;5.10;;;3.43;;
8293;SDS011;4185;41.506;24.938;2023-09-19T11:14:28;3.23;;;2.87;;
8293;SDS011;4185;41.506;24.938;2023-09-19T11:20:19;3.80;;;3.03;;
8293;SDS011;4185;41.506;24.938;2023-09-19T11:23:22;3.47;;;2.57;;
8293;SDS011;4185;41.506;24.938;2023-09-19T11:25:49;3.30;;;3.00;;
8293;SDS011;4185;41.506;24.938;2023-09-19T11:28:32;2.77;;;2.57;;
8293;SDS011;4185;41.506;24.938;2023-09-19T11:34:37;4.37;;;3.10;;
8293;SDS011;4185;41.506;24.938;2023-09-19T11:40:32;4.77;;;3.40;;
8293;SDS011;4185;41.506;24.938;2023-09-19T11:43:00;3.53;;;3.23;;
8293;SDS011;4185;41.506;24.938;2023-09-19T11:46:04;3.20;;;2.90;;
8293;SDS011;4185;41.506;24.938;2023-09-19T11:48:31;3.70;;;3.30;;
8293;SDS011;4185;41.506;24.938;2023-09-19T11:50:58;4.87;;;3.23;;
8293;SDS011;4185;41.506;24.938;2023-09-19T11:53:32;3.30;;;3.00;;
8293;SDS011;4185;41.506;24.938;2023-09-19T11:56:01;3.57;;;3.27;;
8293;SDS011;4185;41.506;24.938;2023-09-19T11:58:29;3.53;;;3.23;;
8293;SDS011;4185;41.506;24.938;2023-09-19T12:00:59;3.97;;;2.83;;
8293;SDS011;4185;41.506;24.938;2023-09-19T12:03:33;5.15;;;3.20;;
8293;SDS011;4185;41.506;24.938;2023-09-19T12:06:10;4.88;;;3.78;;
8293;SDS011;4185;41.506;24.938;2023-09-19T12:08:39;3.63;;;3.03;;
8293;SDS011;4185;41.506;24.938;2023-09-19T12:11:11;3.80;;;3.25;;
8293;SDS011;4185;41.506;24.938;2023-09-19T12:13:41;3.78;;;3.17;;
8293;SDS011;4185;41.506;24.938;2023-09-19T12:16:14;3.13;;;2.88;;
8293;SDS011;4185;41.506;24.938;2023-09-19T12:18:44;3.10;;;2.80;;
8293;SDS011;4185;41.506;24.938;2023-09-19T12:21:24;4.00;;;3.20;;
8293;SDS011;4185;41.506;24.938;2023-09-19T12:23:58;3.42;;;3.13;;
8293;SDS011;4185;41.506;24.938;2023-09-19T12:26:41;3.40;;;2.72;;
8293;SDS011;4185;41.506;24.938;2023-09-19T12:29:12;3.90;;;2.90;;
8293;SDS011;4185;41.506;24.938;2023-09-19T12:31:51;4.15;;;3.00;;
8293;SDS011;4185;41.506;24.938;2023-09-19T12:34:21;3.42;;;2.92;;
8293;SDS011;4185;41.506;24.938;2023-09-19T12:37:03;3.50;;;3.00;;
8293;SDS011;4185;41.506;24.938;2023-09-19T12:39:36;4.45;;;3.20;;
8293;SDS011;4185;41.506;24.938;2023-09-19T12:42:03;4.85;;;3.05;;
8293;SDS011;4185;41.506;24.938;2023-09-19T12:44:34;2.97;;;2.67;;
8293;SDS011;4185;41.506;24.938;2023-09-19T12:47:09;3.70;;;3.15;;
8293;SDS011;4185;41.506;24.938;2023-09-19T12:52:43;4.88;;;3.22;;
8293;SDS011;4185;41.506;24.938;2023-09-19T12:55:22;3.80;;;2.72;;
8293;SDS011;4185;41.506;24.938;2023-09-19T12:58:00;3.40;;;3.10;;
8293;SDS011;4185;41.506;24.938;2023-09-19T13:00:34;5.80;;;3.40;;
8293;SDS011;4185;41.506;24.938;2023-09-19T13:03:12;3.40;;;3.08;;
8293;SDS011;4185;41.506;24.938;2023-09-19T13:05:46;3.47;;;2.95;;
8293;SDS011;4185;41.506;24.938;2023-09-19T13:08:17;3.97;;;2.83;;
8293;SDS011;4185;41.506;24.938;2023-09-19T13:13:38;4.20;;;2.75;;
8293;SDS011;4185;41.506;24.938;2023-09-19T13:16:06;3.03;;;2.80;;
8293;SDS011;4185;41.506;24.938;2023-09-19T13:18:47;3.97;;;3.28;;
8293;SDS011;4185;41.506;24.938;2023-09-19T13:21:27;4.18;;;3.13;;
8293;SDS011;4185;41.506;24.938;2023-09-19T13:26:45;3.40;;;2.80;;
8293;SDS011;4185;41.506;24.938;2023-09-19T13:29:12;3.08;;;2.45;;
8293;SDS011;4185;41.506;24.938;2023-09-19T13:31:44;3.97;;;3.10;;
8293;SDS011;4185;41.506;24.938;2023-09-19T13:34:13;3.40;;;2.88;;
8293;SDS011;4185;41.506;24.938;2023-09-19T13:36:41;3.28;;;2.97;;
8293;SDS011;4185;41.506;24.938;2023-09-19T13:39:08;4.10;;;3.13;;
8293;SDS011;4185;41.506;24.938;2023-09-19T13:41:35;3.40;;;3.10;;
8293;SDS011;4185;41.506;24.938;2023-09-19T13:44:02;5.25;;;3.22;;
8293;SDS011;4185;41.506;24.938;2023-09-19T13:46:29;3.90;;;3.25;;
8293;SDS011;4185;41.506;24.938;2023-09-19T13:49:00;5.68;;;2.92;;
8293;SDS011;4185;41.506;24.938;2023-09-19T13:51:30;3.00;;;2.70;;
8293;SDS011;4185;41.506;24.938;2023-09-19T13:53:57;4.25;;;2.95;;
8293;SDS011;4185;41.506;24.938;2023-09-19T13:56:24;5.30;;;2.90;;
8293;SDS011;4185;41.506;24.938;2023-09-19T13:58:53;3.97;;;3.30;;
8293;SDS011;4185;41.506;24.938;2023-09-19T14:01:19;3.55;;;2.97;;
8293;SDS011;4185;41.506;24.938;2023-09-19T14:03:46;4.43;;;2.97;;
8293;SDS011;4185;41.506;24.938;2023-09-19T14:06:16;4.45;;;3.20;;
8293;SDS011;4185;41.506;24.938;2023-09-19T14:08:44;3.35;;;2.92;;
8293;SDS011;4185;41.506;24.938;2023-09-19T14:11:13;4.80;;;3.15;;
8293;SDS011;4185;41.506;24.938;2023-09-19T14:13:41;3.30;;;3.00;;
8293;SDS011;4185;41.506;24.938;2023-09-19T14:16:12;3.60;;;3.30;;
8293;SDS011;4185;41.506;24.938;2023-09-19T14:18:39;2.80;;;2.50;;
8293;SDS011;4185;41.506;24.938;2023-09-19T14:21:07;4.38;;;2.92;;
8293;SDS011;4185;41.506;24.938;2023-09-19T14:23:36;3.90;;;3.00;;
8293;SDS011;4185;41.506;24.938;2023-09-19T14:26:04;3.05;;;2.75;;
8293;SDS011;4185;41.506;24.938;2023-09-19T14:28:31;3.50;;;2.90;;
8293;SDS011;4185;41.506;24.938;2023-09-19T14:31:03;4.82;;;2.90;;
8293;SDS011;4185;41.506;24.938;2023-09-19T14:33:31;3.15;;;2.85;;
8293;SDS011;4185;41.506;24.938;2023-09-19T14:35:57;4.40;;;3.40;;
8293;SDS011;4185;41.506;24.938;2023-09-19T14:38:24;2.70;;;2.50;;
8293;SDS011;4185;41.506;24.938;2023-09-19T14:40:58;4.45;;;2.92;;
8293;SDS011;4185;41.506;24.938;2023-09-19T14:43:27;2.88;;;2.67;;
8293;SDS011;4185;41.506;24.938;2023-09-19T14:45:55;4.63;;;3.30;;
8293;SDS011;4185;41.506;24.938;2023-09-19T14:48:22;3.95;;;3.28;;
8293;SDS011;4185;41.506;24.938;2023-09-19T14:50:51;5.20;;;2.85;;
8293;SDS011;4185;41.506;24.938;2023-09-19T14:53:18;3.50;;;3.20;;
8293;SDS011;4185;41.506;24.938;2023-09-19T14:55:45;4.10;;;3.60;;
8293;SDS011;4185;41.506;24.938;2023-09-19T14:58:13;3.30;;;3.00;;
8293;SDS011;4185;41.506;24.938;2023-09-19T15:00:41;3.78;;;3.20;;
8293;SDS011;4185;41.506;24.938;2023-09-19T15:03:10;3.38;;;2.78;;
8293;SDS011;4185;41.506;24.938;2023-09-19T15:05:38;4.88;;;3.05;;
8293;SDS011;4185;41.506;24.938;2023-09-19T15:08:05;3.35;;;3.00;;
8293;SDS011;4185;41.506;24.938;2023-09-19T15:10:32;3.60;;;2.95;;
8293;SDS011;4185;41.506;24.938;2023-09-19T15:12:59;3.25;;;2.92;;
8293;SDS011;4185;41.506;24.938;2023-09-19T15:15:26;3.30;;;3.00;;
8293;SDS011;4185;41.506;24.938;2023-09-19T15:17:54;5.95;;;3.08;;
8293;SDS011;4185;41.506;24.938;2023-09-19T15:20:21;4.50;;;3.13;;
8293;SDS011;4185;41.506;24.938;2023-09-19T15:22:49;3.50;;;2.97;;
8293;SDS011;4185;41.506;24.938;2023-09-19T15:25:16;3.42;;;2.80;;
8293;SDS011;4185;41.506;24.938;2023-09-19T15:27:43;4.30;;;3.92;;
8293;SDS011;4185;41.506;24.938;2023-09-19T15:30:10;7.65;;;4.18;;
8293;SDS011;4185;41.506;24.938;2023-09-19T15:32:40;4.40;;;3.55;;
8293;SDS011;4185;41.506;24.938;2023-09-19T15:35:09;5.38;;;4.32;;
8293;SDS011;4185;41.506;24.938;2023-09-19T15:37:39;5.30;;;3.70;;
8293;SDS011;4185;41.506;24.938;2023-09-19T15:40:06;6.20;;;4.60;;
8293;SDS011;4185;41.506;24.938;2023-09-19T15:42:36;6.05;;;4.63;;
8293;SDS011;4185;41.506;24.938;2023-09-19T15:45:03;6.93;;;4.43;;